sensor_id;sensor_type;location;lat;lon;timestamp;P1;durP1;ratioP1;P2;durP2;ratioP2
15171;SDS011;7686;52.184;9.280;2023-01-10T00:00:29;0.95;;;0.50;;
15171;SDS011;7686;52.184;9.280;2023-01-10T00:03:00;0.45;;;0.40;;
15171;SDS011;7686;52.184;9.280;2023-01-10T00:05:27;0.50;;;0.50;;
15171;SDS011;7686;52.184;9.280;2023-01-10T00:07:54;1.13;;;0.70;;
15171;SDS011;7686;52.184;9.280;2023-01-10T00:10:21;0.50;;;0.50;;
15171;SDS011;7686;52.184;9.280;2023-01-10T00:12:47;0.90;;;0.50;;
15171;SDS011;7686;52.184;9.280;2023-01-10T00:15:33;1.00;;;0.60;;
15171;SDS011;7686;52.184;9.280;2023-01-10T00:18:00;1.40;;;0.65;;
15171;SDS011;7686;52.184;9.280;2023-01-10T00:20:27;0.73;;;0.50;;
15171;SDS011;7686;52.184;9.280;2023-01-10T00:22:54;0.60;;;0.60;;
15171;SDS011;7686;52.184;9.280;2023-01-10T00:25:21;0.60;;;0.50;;
15171;SDS011;7686;52.184;9.280;2023-01-10T00:27:48;1.13;;;0.60;;
15171;SDS011;7686;52.184;9.280;2023-01-10T00:30:29;0.80;;;0.60;;
15171;SDS011;7686;52.184;9.280;2023-01-10T00:32:58;0.52;;;0.50;;
15171;SDS011;7686;52.184;9.280;2023-01-10T00:35:25;0.98;;;0.65;;
15171;SDS011;7686;52.184;9.280;2023-01-10T00:37:52;1.00;;;0.60;;
15171;SDS011;7686;52.184;9.280;2023-01-10T00:40:22;1.90;;;0.68;;
15171;SDS011;7686;52.184;9.280;2023-01-10T00:42:49;0.73;;;0.50;;
15171;SDS011;7686;52.184;9.280;2023-01-10T00:45:34;0.80;;;0.60;;
15171;SDS011;7686;52.184;9.280;2023-01-10T00:48:01;2.08;;;0.40;;
15171;SDS011;7686;52.184;9.280;2023-01-10T00:50:28;0.63;;;0.57;;
15171;SDS011;7686;52.184;9.280;2023-01-10T00:52:54;0.77;;;0.50;;
15171;SDS011;7686;52.184;9.280;2023-01-10T00:55:21;0.68;;;0.50;;
15171;SDS011;7686;52.184;9.280;2023-01-10T00:57:48;0.47;;;0.47;;
15171;SDS011;7686;52.184;9.280;2023-01-10T01:00:14;1.60;;;0.60;;
15171;SDS011;7686;52.184;9.280;2023-01-10T01:02:41;0.55;;;0.50;;
15171;SDS011;7686;52.184;9.280;2023-01-10T01:05:08;1.52;;;0.68;;
15171;SDS011;7686;52.184;9.280;2023-01-10T01:07:35;1.23;;;0.77;;
15171;SDS011;7686;52.184;9.280;2023-01-10T01:10:01;1.27;;;0.47;;
15171;SDS011;7686;52.184;9.280;2023-01-10T01:12:55;3.03;;;0.50;;
15171;SDS011;7686;52.184;9.280;2023-01-10T01:15:24;1.15;;;0.68;;
15171;SDS011;7686;52.184;9.280;2023-01-10T01:17:52;0.52;;;0.50;;
15171;SDS011;7686;52.184;9.280;2023-01-10T01:20:18;0.50;;;0.50;;
15171;SDS011;7686;52.184;9.280;2023-01-10T01:22:46;0.73;;;0.60;;
15171;SDS011;7686;52.184;9.280;2023-01-10T01:25:13;2.38;;;0.60;;
15171;SDS011;7686;52.184;9.280;2023-01-10T01:27:40;0.40;;;0.40;;
15171;SDS011;7686;52.184;9.280;2023-01-10T01:30:07;0.90;;;0.60;;
15171;SDS011;7686;52.184;9.280;2023-01-10T01:32:35;0.73;;;0.50;;
15171;SDS011;7686;52.184;9.280;2023-01-10T01:35:02;0.40;;;0.40;;
15171;SDS011;7686;52.184;9.280;2023-01-10T01:37:30;0.50;;;0.40;;
15171;SDS011;7686;52.184;9.280;2023-01-10T01:39:57;0.50;;;0.50;;
15171;SDS011;7686;52.184;9.280;2023-01-10T01:42:25;0.57;;;0.50;;
15171;SDS011;7686;52.184;9.280;2023-01-10T01:45:05;0.50;;;0.50;;
15171;SDS011;7686;52.184;9.280;2023-01-10T01:48:24;0.47;;;0.47;;
15171;SDS011;7686;52.184;9.280;2023-01-10T01:53:45;0.80;;;0.45;;
15171;SDS011;7686;52.184;9.280;2023-01-10T01:56:22;0.52;;;0.52;;
15171;SDS011;7686;52.184;9.280;2023-01-10T01:59:06;0.40;;;0.40;;
15171;SDS011;7686;52.184;9.280;2023-01-10T02:01:37;1.15;;;0.60;;
15171;SDS011;7686;52.184;9.280;2023-01-10T02:04:14;0.50;;;0.50;;
15171;SDS011;7686;52.184;9.280;2023-01-10T02:06:47;0.55;;;0.40;;
15171;SDS011;7686;52.184;9.280;2023-01-10T02:09:22;0.40;;;0.40;;
15171;SDS011;7686;52.184;9.280;2023-01-10T02:12:08;0.65;;;0.50;;
15171;SDS011;7686;52.184;9.280;2023-01-10T02:14:35;0.57;;;0.50;;
15171;SDS011;7686;52.184;9.280;2023-01-10T02:17:03;0.40;;;0.40;;
15171;SDS011;7686;52.184;9.280;2023-01-10T02:22:55;0.40;;;0.40;;
15171;SDS011;7686;52.184;9.280;2023-01-10T02:31:26;0.75;;;0.50;;
15171;SDS011;7686;52.184;9.280;2023-01-10T02:42:38;0.50;;;0.43;;
15171;SDS011;7686;52.184;9.280;2023-01-10T02:45:13;1.27;;;0.60;;
15171;SDS011;7686;52.184;9.280;2023-01-10T02:48:08;0.85;;;0.60;;
15171;SDS011;7686;52.184;9.280;2023-01-10T02:53:03;0.70;;;0.50;;
15171;SDS011;7686;52.184;9.280;2023-01-10T02:56:18;0.70;;;0.47;;
15171;SDS011;7686;52.184;9.280;2023-01-10T03:15:22;1.02;;;0.60;;
15171;SDS011;7686;52.184;9.280;2023-01-10T03:17:54;0.47;;;0.47;;
15171;SDS011;7686;52.184;9.280;2023-01-10T03:20:23;0.50;;;0.50;;
15171;SDS011;7686;52.184;9.280;2023-01-10T03:22:52;0.55;;;0.55;;
15171;SDS011;7686;52.184;9.280;2023-01-10T03:25:22;1.02;;;0.50;;
15171;SDS011;7686;52.184;9.280;2023-01-10T03:27:54;0.85;;;0.50;;
15171;SDS011;7686;52.184;9.280;2023-01-10T03:30:30;1.08;;;0.52;;
15171;SDS011;7686;52.184;9.280;2023-01-10T03:33:10;0.50;;;0.50;;
15171;SDS011;7686;52.184;9.280;2023-01-10T03:41:36;0.50;;;0.50;;
15171;SDS011;7686;52.184;9.280;2023-01-10T03:44:30;0.65;;;0.40;;
15171;SDS011;7686;52.184;9.280;2023-01-10T03:47:22;0.77;;;0.50;;
15171;SDS011;7686;52.184;9.280;2023-01-10T03:49:56;0.73;;;0.57;;
15171;SDS011;7686;52.184;9.280;2023-01-10T03:52:28;0.38;;;0.38;;
15171;SDS011;7686;52.184;9.280;2023-01-10T03:54:55;1.13;;;0.60;;
15171;SDS011;7686;52.184;9.280;2023-01-10T03:57:24;0.40;;;0.40;;
15171;SDS011;7686;52.184;9.280;2023-01-10T03:59:53;0.40;;;0.40;;
15171;SDS011;7686;52.184;9.280;2023-01-10T04:02:25;0.35;;;0.35;;
15171;SDS011;7686;52.184;9.280;2023-01-10T04:04:53;0.63;;;0.50;;
15171;SDS011;7686;52.184;9.280;2023-01-10T04:07:20;1.08;;;0.60;;
15171;SDS011;7686;52.184;9.280;2023-01-10T04:09:47;0.50;;;0.50;;
15171;SDS011;7686;52.184;9.280;2023-01-10T04:12:14;0.57;;;0.50;;
15171;SDS011;7686;52.184;9.280;2023-01-10T04:14:41;0.55;;;0.50;;
15171;SDS011;7686;52.184;9.280;2023-01-10T04:17:08;0.55;;;0.40;;
15171;SDS011;7686;52.184;9.280;2023-01-10T04:19:34;0.47;;;0.40;;
15171;SDS011;7686;52.184;9.280;2023-01-10T04:22:01;1.17;;;0.47;;
15171;SDS011;7686;52.184;9.280;2023-01-10T04:24:28;0.70;;;0.50;;
15171;SDS011;7686;52.184;9.280;2023-01-10T04:26:54;0.70;;;0.60;;
15171;SDS011;7686;52.184;9.280;2023-01-10T04:29:21;0.52;;;0.50;;
15171;SDS011;7686;52.184;9.280;2023-01-10T04:31:48;0.40;;;0.40;;
15171;SDS011;7686;52.184;9.280;2023-01-10T04:34:15;0.40;;;0.30;;
15171;SDS011;7686;52.184;9.280;2023-01-10T04:36:42;0.75;;;0.50;;
15171;SDS011;7686;52.184;9.280;2023-01-10T04:39:09;0.50;;;0.50;;
15171;SDS011;7686;52.184;9.280;2023-01-10T04:41:35;0.65;;;0.50;;
15171;SDS011;7686;52.184;9.280;2023-01-10T04:44:02;0.98;;;0.60;;
15171;SDS011;7686;52.184;9.280;2023-01-10T04:46:29;0.40;;;0.40;;
15171;SDS011;7686;52.184;9.280;2023-01-10T04:48:57;0.60;;;0.50;;
15171;SDS011;7686;52.184;9.280;2023-01-10T04:51:24;0.40;;;0.40;;
15171;SDS011;7686;52.184;9.280;2023-01-10T04:53:52;0.50;;;0.40;;
15171;SDS011;7686;52.184;9.280;2023-01-10T04:56:19;0.30;;;0.30;;
15171;SDS011;7686;52.184;9.280;2023-01-10T04:58:47;0.40;;;0.40;;
15171;SDS011;7686;52.184;9.280;2023-01-10T05:01:17;0.50;;;0.40;;
15171;SDS011;7686;52.184;9.280;2023-01-10T05:03:48;1.42;;;0.40;;
15171;SDS011;7686;52.184;9.280;2023-01-10T05:06:20;0.73;;;0.50;;
15171;SDS011;7686;52.184;9.280;2023-01-10T05:08:47;1.55;;;0.50;;
15171;SDS011;7686;52.184;9.280;2023-01-10T05:11:14;2.88;;;0.63;;
15171;SDS011;7686;52.184;9.280;2023-01-10T05:13:41;0.40;;;0.40;;
15171;SDS011;7686;52.184;9.280;2023-01-10T05:16:08;0.30;;;0.30;;
15171;SDS011;7686;52.184;9.280;2023-01-10T05:18:34;0.85;;;0.40;;
15171;SDS011;7686;52.184;9.280;2023-01-10T05:21:05;0.30;;;0.30;;
15171;SDS011;7686;52.184;9.280;2023-01-10T05:23:33;0.82;;;0.50;;
15171;SDS011;7686;52.184;9.280;2023-01-10T05:26:07;0.43;;;0.43;;
15171;SDS011;7686;52.184;9.280;2023-01-10T05:28:40;0.40;;;0.30;;
15171;SDS011;7686;52.184;9.280;2023-01-10T05:31:08;1.00;;;0.47;;
15171;SDS011;7686;52.184;9.280;2023-01-10T05:33:36;0.55;;;0.40;;
15171;SDS011;7686;52.184;9.280;2023-01-10T05:36:03;0.40;;;0.38;;
15171;SDS011;7686;52.184;9.280;2023-01-10T05:38:31;1.70;;;0.40;;
15171;SDS011;7686;52.184;9.280;2023-01-10T05:40:59;0.80;;;0.47;;
15171;SDS011;7686;52.184;9.280;2023-01-10T05:43:26;1.08;;;0.57;;
15171;SDS011;7686;52.184;9.280;2023-01-10T05:45:53;0.50;;;0.50;;
15171;SDS011;7686;52.184;9.280;2023-01-10T05:48:20;0.52;;;0.50;;
15171;SDS011;7686;52.184;9.280;2023-01-10T05:50:48;0.85;;;0.60;;
15171;SDS011;7686;52.184;9.280;2023-01-10T05:53:16;1.05;;;0.65;;
15171;SDS011;7686;52.184;9.280;2023-01-10T05:55:43;1.50;;;0.57;;
15171;SDS011;7686;52.184;9.280;2023-01-10T05:58:17;1.67;;;0.63;;
15171;SDS011;7686;52.184;9.280;2023-01-10T06:00:43;1.98;;;0.60;;
15171;SDS011;7686;52.184;9.280;2023-01-10T06:03:10;1.50;;;0.80;;
15171;SDS011;7686;52.184;9.280;2023-01-10T06:05:37;2.10;;;0.50;;
15171;SDS011;7686;52.184;9.280;2023-01-10T06:08:03;3.10;;;0.70;;
15171;SDS011;7686;52.184;9.280;2023-01-10T06:10:30;1.02;;;0.57;;
15171;SDS011;7686;52.184;9.280;2023-01-10T06:12:57;0.95;;;0.52;;
15171;SDS011;7686;52.184;9.280;2023-01-10T06:15:23;1.00;;;0.57;;
15171;SDS011;7686;52.184;9.280;2023-01-10T06:17:50;5.78;;;0.70;;
15171;SDS011;7686;52.184;9.280;2023-01-10T06:20:17;3.22;;;0.63;;
15171;SDS011;7686;52.184;9.280;2023-01-10T06:22:43;0.95;;;0.60;;
15171;SDS011;7686;52.184;9.280;2023-01-10T06:25:10;1.52;;;0.60;;
15171;SDS011;7686;52.184;9.280;2023-01-10T06:27:41;0.98;;;0.60;;
15171;SDS011;7686;52.184;9.280;2023-01-10T06:30:09;1.67;;;0.82;;
15171;SDS011;7686;52.184;9.280;2023-01-10T06:32:38;2.80;;;0.73;;
15171;SDS011;7686;52.184;9.280;2023-01-10T06:35:06;1.65;;;0.63;;
15171;SDS011;7686;52.184;9.280;2023-01-10T06:37:33;1.88;;;0.70;;
15171;SDS011;7686;52.184;9.280;2023-01-10T06:39:59;1.95;;;0.60;;
15171;SDS011;7686;52.184;9.280;2023-01-10T06:42:26;2.38;;;0.73;;
15171;SDS011;7686;52.184;9.280;2023-01-10T06:44:53;1.42;;;0.70;;
15171;SDS011;7686;52.184;9.280;2023-01-10T06:47:19;1.02;;;0.60;;
15171;SDS011;7686;52.184;9.280;2023-01-10T06:49:46;1.17;;;0.65;;
15171;SDS011;7686;52.184;9.280;2023-01-10T06:52:13;1.23;;;0.55;;
15171;SDS011;7686;52.184;9.280;2023-01-10T06:54:39;1.52;;;0.60;;
15171;SDS011;7686;52.184;9.280;2023-01-10T06:57:06;1.92;;;0.50;;
15171;SDS011;7686;52.184;9.280;2023-01-10T06:59:33;1.63;;;0.70;;
15171;SDS011;7686;52.184;9.280;2023-01-10T07:02:00;1.25;;;0.70;;
15171;SDS011;7686;52.184;9.280;2023-01-10T07:04:27;2.00;;;0.65;;
15171;SDS011;7686;52.184;9.280;2023-01-10T07:06:53;0.70;;;0.52;;
15171;SDS011;7686;52.184;9.280;2023-01-10T07:09:20;2.72;;;0.80;;
15171;SDS011;7686;52.184;9.280;2023-01-10T07:11:47;1.75;;;0.75;;
15171;SDS011;7686;52.184;9.280;2023-01-10T07:14:13;1.42;;;0.60;;
15171;SDS011;7686;52.184;9.280;2023-01-10T07:16:40;2.65;;;0.65;;
15171;SDS011;7686;52.184;9.280;2023-01-10T07:19:07;1.02;;;0.60;;
15171;SDS011;7686;52.184;9.280;2023-01-10T07:21:33;1.27;;;0.70;;
15171;SDS011;7686;52.184;9.280;2023-01-10T07:24:00;1.42;;;0.60;;
15171;SDS011;7686;52.184;9.280;2023-01-10T07:26:28;1.75;;;0.80;;
15171;SDS011;7686;52.184;9.280;2023-01-10T07:28:55;2.95;;;0.80;;
15171;SDS011;7686;52.184;9.280;2023-01-10T07:31:21;2.45;;;0.77;;
15171;SDS011;7686;52.184;9.280;2023-01-10T07:33:49;5.18;;;1.30;;
15171;SDS011;7686;52.184;9.280;2023-01-10T07:36:17;3.33;;;1.40;;
15171;SDS011;7686;52.184;9.280;2023-01-10T07:38:44;4.35;;;1.88;;
15171;SDS011;7686;52.184;9.280;2023-01-10T07:41:11;4.32;;;1.80;;
15171;SDS011;7686;52.184;9.280;2023-01-10T07:43:37;5.23;;;1.80;;
15171;SDS011;7686;52.184;9.280;2023-01-10T07:46:05;4.17;;;1.73;;
15171;SDS011;7686;52.184;9.280;2023-01-10T07:48:34;5.00;;;1.83;;
15171;SDS011;7686;52.184;9.280;2023-01-10T07:51:02;4.27;;;1.60;;
15171;SDS011;7686;52.184;9.280;2023-01-10T07:53:29;4.57;;;1.60;;
15171;SDS011;7686;52.184;9.280;2023-01-10T07:56:00;5.30;;;1.40;;
15171;SDS011;7686;52.184;9.280;2023-01-10T07:58:27;3.47;;;1.13;;
15171;SDS011;7686;52.184;9.280;2023-01-10T08:00:58;5.00;;;1.30;;
15171;SDS011;7686;52.184;9.280;2023-01-10T08:03:26;3.10;;;1.13;;
15171;SDS011;7686;52.184;9.280;2023-01-10T08:05:58;2.70;;;1.13;;
15171;SDS011;7686;52.184;9.280;2023-01-10T08:08:26;3.60;;;1.10;;
15171;SDS011;7686;52.184;9.280;2023-01-10T08:10:53;2.87;;;1.10;;
15171;SDS011;7686;52.184;9.280;2023-01-10T08:13:20;2.57;;;1.17;;
15171;SDS011;7686;52.184;9.280;2023-01-10T08:15:48;3.70;;;1.37;;
15171;SDS011;7686;52.184;9.280;2023-01-10T08:18:17;3.43;;;1.17;;
15171;SDS011;7686;52.184;9.280;2023-01-10T08:20:45;2.67;;;1.03;;
15171;SDS011;7686;52.184;9.280;2023-01-10T08:23:13;2.73;;;1.10;;
15171;SDS011;7686;52.184;9.280;2023-01-10T08:25:40;2.43;;;1.07;;
15171;SDS011;7686;52.184;9.280;2023-01-10T08:28:06;2.27;;;0.97;;
15171;SDS011;7686;52.184;9.280;2023-01-10T08:30:33;3.63;;;1.17;;
15171;SDS011;7686;52.184;9.280;2023-01-10T08:33:01;2.07;;;0.80;;
15171;SDS011;7686;52.184;9.280;2023-01-10T08:35:28;2.17;;;0.90;;
15171;SDS011;7686;52.184;9.280;2023-01-10T08:37:58;3.83;;;1.00;;
15171;SDS011;7686;52.184;9.280;2023-01-10T08:40:25;2.80;;;0.90;;
15171;SDS011;7686;52.184;9.280;2023-01-10T08:42:59;3.20;;;1.00;;
15171;SDS011;7686;52.184;9.280;2023-01-10T08:45:27;1.53;;;1.00;;
15171;SDS011;7686;52.184;9.280;2023-01-10T08:47:54;0.82;;;0.68;;
15171;SDS011;7686;52.184;9.280;2023-01-10T08:50:21;1.60;;;0.95;;
15171;SDS011;7686;52.184;9.280;2023-01-10T08:52:48;3.17;;;1.13;;
15171;SDS011;7686;52.184;9.280;2023-01-10T08:55:16;1.20;;;0.85;;
15171;SDS011;7686;52.184;9.280;2023-01-10T08:57:44;1.80;;;0.90;;
15171;SDS011;7686;52.184;9.280;2023-01-10T09:00:10;1.45;;;0.80;;
15171;SDS011;7686;52.184;9.280;2023-01-10T09:02:38;2.13;;;0.90;;
15171;SDS011;7686;52.184;9.280;2023-01-10T09:05:05;2.00;;;1.02;;
15171;SDS011;7686;52.184;9.280;2023-01-10T09:07:47;1.40;;;0.65;;
15171;SDS011;7686;52.184;9.280;2023-01-10T09:10:14;3.92;;;0.93;;
15171;SDS011;7686;52.184;9.280;2023-01-10T09:12:40;2.35;;;0.93;;
15171;SDS011;7686;52.184;9.280;2023-01-10T09:15:26;1.65;;;0.75;;
15171;SDS011;7686;52.184;9.280;2023-01-10T09:17:59;1.15;;;0.77;;
15171;SDS011;7686;52.184;9.280;2023-01-10T09:20:27;1.70;;;0.90;;
15171;SDS011;7686;52.184;9.280;2023-01-10T09:22:54;2.42;;;1.05;;
15171;SDS011;7686;52.184;9.280;2023-01-10T09:25:22;1.35;;;0.77;;
15171;SDS011;7686;52.184;9.280;2023-01-10T09:27:59;1.65;;;0.90;;
15171;SDS011;7686;52.184;9.280;2023-01-10T09:30:27;1.88;;;0.90;;
15171;SDS011;7686;52.184;9.280;2023-01-10T09:32:55;1.52;;;0.80;;
15171;SDS011;7686;52.184;9.280;2023-01-10T09:35:24;4.28;;;1.05;;
15171;SDS011;7686;52.184;9.280;2023-01-10T09:37:52;1.33;;;1.00;;
15171;SDS011;7686;52.184;9.280;2023-01-10T09:40:26;1.65;;;0.82;;
15171;SDS011;7686;52.184;9.280;2023-01-10T09:43:12;1.83;;;0.80;;
15171;SDS011;7686;52.184;9.280;2023-01-10T09:48:54;2.00;;;0.80;;
15171;SDS011;7686;52.184;9.280;2023-01-10T09:54:10;1.15;;;0.80;;
15171;SDS011;7686;52.184;9.280;2023-01-10T09:56:40;2.13;;;0.90;;
15171;SDS011;7686;52.184;9.280;2023-01-10T09:59:12;1.15;;;0.77;;
15171;SDS011;7686;52.184;9.280;2023-01-10T10:01:42;2.80;;;1.00;;
15171;SDS011;7686;52.184;9.280;2023-01-10T10:06:47;2.08;;;1.00;;
15171;SDS011;7686;52.184;9.280;2023-01-10T10:09:16;1.65;;;0.80;;
15171;SDS011;7686;52.184;9.280;2023-01-10T10:19:54;2.35;;;0.98;;
15171;SDS011;7686;52.184;9.280;2023-01-10T10:22:48;1.55;;;0.82;;
15171;SDS011;7686;52.184;9.280;2023-01-10T10:31:34;1.17;;;0.73;;
15171;SDS011;7686;52.184;9.280;2023-01-10T10:34:32;3.42;;;1.00;;
15171;SDS011;7686;52.184;9.280;2023-01-10T10:42:22;2.13;;;1.00;;
15171;SDS011;7686;52.184;9.280;2023-01-10T10:45:00;2.05;;;0.90;;
15171;SDS011;7686;52.184;9.280;2023-01-10T10:47:32;2.22;;;0.95;;
15171;SDS011;7686;52.184;9.280;2023-01-10T10:52:59;2.55;;;0.80;;
15171;SDS011;7686;52.184;9.280;2023-01-10T10:55:31;2.40;;;1.00;;
15171;SDS011;7686;52.184;9.280;2023-01-10T10:58:01;3.67;;;0.90;;
15171;SDS011;7686;52.184;9.280;2023-01-10T11:00:30;2.20;;;0.90;;
15171;SDS011;7686;52.184;9.280;2023-01-10T11:03:02;1.90;;;0.90;;
15171;SDS011;7686;52.184;9.280;2023-01-10T11:05:42;2.25;;;0.80;;
15171;SDS011;7686;52.184;9.280;2023-01-10T11:08:12;1.55;;;0.80;;
15171;SDS011;7686;52.184;9.280;2023-01-10T11:10:43;1.33;;;0.80;;
15171;SDS011;7686;52.184;9.280;2023-01-10T11:15:46;1.48;;;0.80;;
15171;SDS011;7686;52.184;9.280;2023-01-10T11:18:14;0.88;;;0.68;;
15171;SDS011;7686;52.184;9.280;2023-01-10T11:20:51;1.40;;;0.93;;
15171;SDS011;7686;52.184;9.280;2023-01-10T11:23:42;1.63;;;0.90;;
15171;SDS011;7686;52.184;9.280;2023-01-10T11:28:52;2.90;;;0.80;;
15171;SDS011;7686;52.184;9.280;2023-01-10T11:31:30;1.88;;;0.88;;
15171;SDS011;7686;52.184;9.280;2023-01-10T11:33:57;1.70;;;0.88;;
15171;SDS011;7686;52.184;9.280;2023-01-10T11:36:25;2.83;;;1.20;;
15171;SDS011;7686;52.184;9.280;2023-01-10T11:39:02;1.42;;;0.65;;
15171;SDS011;7686;52.184;9.280;2023-01-10T11:41:29;2.38;;;1.00;;
15171;SDS011;7686;52.184;9.280;2023-01-10T11:47:03;1.85;;;1.00;;
15171;SDS011;7686;52.184;9.280;2023-01-10T11:49:38;2.00;;;1.00;;
15171;SDS011;7686;52.184;9.280;2023-01-10T11:54:51;2.42;;;0.98;;
15171;SDS011;7686;52.184;9.280;2023-01-10T11:57:25;1.80;;;0.80;;
15171;SDS011;7686;52.184;9.280;2023-01-10T11:59:56;2.45;;;1.05;;
15171;SDS011;7686;52.184;9.280;2023-01-10T12:02:30;1.80;;;0.90;;
15171;SDS011;7686;52.184;9.280;2023-01-10T12:05:02;1.23;;;0.80;;
15171;SDS011;7686;52.184;9.280;2023-01-10T12:10:25;2.47;;;0.90;;
15171;SDS011;7686;52.184;9.280;2023-01-10T12:12:54;1.83;;;0.80;;
15171;SDS011;7686;52.184;9.280;2023-01-10T12:15:24;1.75;;;0.93;;
15171;SDS011;7686;52.184;9.280;2023-01-10T12:18:02;1.67;;;0.82;;
15171;SDS011;7686;52.184;9.280;2023-01-10T12:20:32;1.38;;;0.70;;
15171;SDS011;7686;52.184;9.280;2023-01-10T12:23:07;1.00;;;0.70;;
15171;SDS011;7686;52.184;9.280;2023-01-10T12:25:41;0.95;;;0.70;;
15171;SDS011;7686;52.184;9.280;2023-01-10T12:28:15;1.42;;;0.80;;
15171;SDS011;7686;52.184;9.280;2023-01-10T12:30:43;1.48;;;0.77;;
15171;SDS011;7686;52.184;9.280;2023-01-10T12:33:16;2.42;;;0.93;;
15171;SDS011;7686;52.184;9.280;2023-01-10T12:35:49;2.45;;;1.00;;
15171;SDS011;7686;52.184;9.280;2023-01-10T12:47:00;2.00;;;1.15;;
15171;SDS011;7686;52.184;9.280;2023-01-10T12:49:49;1.98;;;0.90;;
15171;SDS011;7686;52.184;9.280;2023-01-10T12:55:39;2.10;;;0.90;;
15171;SDS011;7686;52.184;9.280;2023-01-10T12:58:18;1.85;;;1.00;;
15171;SDS011;7686;52.184;9.280;2023-01-10T13:01:04;1.80;;;0.90;;
15171;SDS011;7686;52.184;9.280;2023-01-10T13:03:32;1.98;;;1.02;;
15171;SDS011;7686;52.184;9.280;2023-01-10T13:06:00;1.85;;;0.90;;
15171;SDS011;7686;52.184;9.280;2023-01-10T13:08:29;1.85;;;1.00;;
15171;SDS011;7686;52.184;9.280;2023-01-10T13:10:59;3.17;;;1.10;;
15171;SDS011;7686;52.184;9.280;2023-01-10T13:14:00;1.80;;;1.10;;
15171;SDS011;7686;52.184;9.280;2023-01-10T13:21:40;1.75;;;0.93;;
15171;SDS011;7686;52.184;9.280;2023-01-10T13:26:56;2.08;;;0.90;;
15171;SDS011;7686;52.184;9.280;2023-01-10T13:29:25;2.33;;;1.02;;
15171;SDS011;7686;52.184;9.280;2023-01-10T13:31:57;2.63;;;1.10;;
15171;SDS011;7686;52.184;9.280;2023-01-10T13:34:33;2.10;;;0.80;;
15171;SDS011;7686;52.184;9.280;2023-01-10T13:37:11;2.33;;;1.10;;
15171;SDS011;7686;52.184;9.280;2023-01-10T13:39:50;2.03;;;0.95;;
15171;SDS011;7686;52.184;9.280;2023-01-10T13:42:24;2.78;;;0.90;;
15171;SDS011;7686;52.184;9.280;2023-01-10T14:00:48;2.33;;;1.10;;
15171;SDS011;7686;52.184;9.280;2023-01-10T14:03:43;2.35;;;1.10;;
15171;SDS011;7686;52.184;9.280;2023-01-10T14:09:27;2.35;;;1.20;;
15171;SDS011;7686;52.184;9.280;2023-01-10T14:11:53;2.28;;;1.00;;
15171;SDS011;7686;52.184;9.280;2023-01-10T14:14:32;2.42;;;1.08;;
15171;SDS011;7686;52.184;9.280;2023-01-10T14:17:12;2.15;;;1.00;;
15171;SDS011;7686;52.184;9.280;2023-01-10T14:19:47;3.30;;;1.10;;
15171;SDS011;7686;52.184;9.280;2023-01-10T14:22:29;3.45;;;1.27;;
15171;SDS011;7686;52.184;9.280;2023-01-10T14:24:59;3.58;;;1.17;;
15171;SDS011;7686;52.184;9.280;2023-01-10T14:27:42;2.22;;;1.10;;
15171;SDS011;7686;52.184;9.280;2023-01-10T14:30:18;3.22;;;1.30;;
15171;SDS011;7686;52.184;9.280;2023-01-10T14:32:49;2.90;;;1.17;;
15171;SDS011;7686;52.184;9.280;2023-01-10T14:35:18;2.70;;;1.42;;
15171;SDS011;7686;52.184;9.280;2023-01-10T14:37:57;2.08;;;1.33;;
15171;SDS011;7686;52.184;9.280;2023-01-10T14:40:28;2.17;;;1.05;;
15171;SDS011;7686;52.184;9.280;2023-01-10T14:43:03;2.33;;;1.00;;
15171;SDS011;7686;52.184;9.280;2023-01-10T14:48:30;2.42;;;0.90;;
15171;SDS011;7686;52.184;9.280;2023-01-10T14:53:43;2.67;;;1.17;;
15171;SDS011;7686;52.184;9.280;2023-01-10T14:56:44;2.88;;;1.27;;
15171;SDS011;7686;52.184;9.280;2023-01-10T14:59:17;2.72;;;1.17;;
15171;SDS011;7686;52.184;9.280;2023-01-10T15:01:46;3.65;;;1.10;;
15171;SDS011;7686;52.184;9.280;2023-01-10T15:04:15;3.83;;;1.20;;
15171;SDS011;7686;52.184;9.280;2023-01-10T15:06:54;3.33;;;1.30;;
15171;SDS011;7686;52.184;9.280;2023-01-10T15:09:20;2.70;;;1.10;;
15171;SDS011;7686;52.184;9.280;2023-01-10T15:11:47;1.83;;;1.20;;
15171;SDS011;7686;52.184;9.280;2023-01-10T15:14:15;3.13;;;1.00;;
15171;SDS011;7686;52.184;9.280;2023-01-10T15:16:44;2.28;;;1.08;;
15171;SDS011;7686;52.184;9.280;2023-01-10T15:19:16;2.10;;;0.90;;
15171;SDS011;7686;52.184;9.280;2023-01-10T15:21:45;1.38;;;0.80;;
15171;SDS011;7686;52.184;9.280;2023-01-10T15:27:12;2.67;;;1.00;;
15171;SDS011;7686;52.184;9.280;2023-01-10T15:29:40;2.17;;;0.90;;
15171;SDS011;7686;52.184;9.280;2023-01-10T15:35:03;2.35;;;1.10;;
15171;SDS011;7686;52.184;9.280;2023-01-10T15:37:34;2.70;;;1.08;;
15171;SDS011;7686;52.184;9.280;2023-01-10T15:40:06;1.90;;;0.90;;
15171;SDS011;7686;52.184;9.280;2023-01-10T15:42:46;3.00;;;1.10;;
15171;SDS011;7686;52.184;9.280;2023-01-10T15:45:28;1.10;;;0.75;;
15171;SDS011;7686;52.184;9.280;2023-01-10T15:48:02;1.48;;;1.00;;
15171;SDS011;7686;52.184;9.280;2023-01-10T15:50:31;2.33;;;0.98;;
15171;SDS011;7686;52.184;9.280;2023-01-10T15:53:04;2.45;;;1.00;;
15171;SDS011;7686;52.184;9.280;2023-01-10T15:58:21;2.08;;;0.98;;
15171;SDS011;7686;52.184;9.280;2023-01-10T16:00:51;1.58;;;0.98;;
15171;SDS011;7686;52.184;9.280;2023-01-10T16:05:56;1.65;;;1.10;;
15171;SDS011;7686;52.184;9.280;2023-01-10T16:08:26;1.63;;;0.90;;
15171;SDS011;7686;52.184;9.280;2023-01-10T16:10:56;2.05;;;0.93;;
15171;SDS011;7686;52.184;9.280;2023-01-10T16:13:25;1.77;;;0.95;;
15171;SDS011;7686;52.184;9.280;2023-01-10T16:15:53;3.78;;;0.82;;
15171;SDS011;7686;52.184;9.280;2023-01-10T16:18:21;3.42;;;1.10;;
15171;SDS011;7686;52.184;9.280;2023-01-10T16:20:48;1.52;;;0.90;;
15171;SDS011;7686;52.184;9.280;2023-01-10T16:23:17;2.42;;;1.10;;
15171;SDS011;7686;52.184;9.280;2023-01-10T16:25:54;2.42;;;0.93;;
15171;SDS011;7686;52.184;9.280;2023-01-10T16:28:23;3.30;;;1.00;;
15171;SDS011;7686;52.184;9.280;2023-01-10T16:30:52;2.70;;;0.93;;
15171;SDS011;7686;52.184;9.280;2023-01-10T16:33:20;3.20;;;1.00;;
15171;SDS011;7686;52.184;9.280;2023-01-10T16:35:49;2.65;;;1.27;;
15171;SDS011;7686;52.184;9.280;2023-01-10T16:38:18;3.40;;;0.95;;
15171;SDS011;7686;52.184;9.280;2023-01-10T16:41:18;3.30;;;1.10;;
15171;SDS011;7686;52.184;9.280;2023-01-10T16:43:57;1.63;;;0.95;;
15171;SDS011;7686;52.184;9.280;2023-01-10T16:46:24;2.58;;;1.00;;
15171;SDS011;7686;52.184;9.280;2023-01-10T16:48:51;3.45;;;1.00;;
15171;SDS011;7686;52.184;9.280;2023-01-10T16:51:21;2.75;;;1.10;;
15171;SDS011;7686;52.184;9.280;2023-01-10T16:53:50;2.70;;;1.10;;
15171;SDS011;7686;52.184;9.280;2023-01-10T16:56:18;3.58;;;1.17;;
15171;SDS011;7686;52.184;9.280;2023-01-10T16:58:54;3.55;;;0.88;;
15171;SDS011;7686;52.184;9.280;2023-01-10T17:01:22;2.83;;;0.85;;
15171;SDS011;7686;52.184;9.280;2023-01-10T17:03:53;1.23;;;0.80;;
15171;SDS011;7686;52.184;9.280;2023-01-10T17:06:21;2.63;;;1.08;;
15171;SDS011;7686;52.184;9.280;2023-01-10T17:08:48;2.15;;;1.00;;
15171;SDS011;7686;52.184;9.280;2023-01-10T17:11:15;2.17;;;0.90;;
15171;SDS011;7686;52.184;9.280;2023-01-10T17:13:52;2.00;;;0.90;;
15171;SDS011;7686;52.184;9.280;2023-01-10T17:16:19;1.60;;;0.80;;
15171;SDS011;7686;52.184;9.280;2023-01-10T17:18:46;2.05;;;1.02;;
15171;SDS011;7686;52.184;9.280;2023-01-10T17:21:15;3.00;;;1.08;;
15171;SDS011;7686;52.184;9.280;2023-01-10T17:23:44;3.20;;;0.95;;
15171;SDS011;7686;52.184;9.280;2023-01-10T17:26:12;1.83;;;0.80;;
15171;SDS011;7686;52.184;9.280;2023-01-10T17:28:40;4.15;;;1.20;;
15171;SDS011;7686;52.184;9.280;2023-01-10T17:31:07;3.42;;;0.88;;
15171;SDS011;7686;52.184;9.280;2023-01-10T17:33:34;1.02;;;0.80;;
15171;SDS011;7686;52.184;9.280;2023-01-10T17:36:01;3.67;;;1.20;;
15171;SDS011;7686;52.184;9.280;2023-01-10T17:38:28;2.40;;;1.00;;
15171;SDS011;7686;52.184;9.280;2023-01-10T17:40:56;4.10;;;0.90;;
15171;SDS011;7686;52.184;9.280;2023-01-10T17:43:27;2.50;;;0.85;;
15171;SDS011;7686;52.184;9.280;2023-01-10T17:45:55;3.42;;;1.13;;
15171;SDS011;7686;52.184;9.280;2023-01-10T17:48:24;3.72;;;1.13;;